Kirkland, WA (98033)

4:47 PM PDT on September 28, 2016 (GMT -0700)
Kirkland Norkirk | | Change Station

Elev 171 ft 47.69 °N, 122.19 °W | Updated 26 seconds ago

Clear
Clear
67.1 °F
Feels Like 67.1 °F
N
4.2
Wind Variable Wind from WNW
Gusts 4.9 mph

Today
High -- | Low -- °F
--% Chance of Precip.
Yesterday
High -- | Low -- °F
Precip. -- in
Pressure 30.06 in
Visibility 10.0 miles
Clouds Clear
Dew Point 50 °F
Humidity 54%
Rainfall 0.00 in
Snow Depth Not available.
7:04 AM 6:52 PM
Waning Crescent, 4% visible
METAR KBFI 282253Z VRB04KT 10SM CLR 19/10 A3005 RMK AO2 SLP177 T01890100 $
Pressure 30.06 in
Visibility 10.0 miles
Clouds Clear
Dew Point 50 °F
Humidity 54%
Rainfall 0.00 in
Snow Depth Not available.
7:04 AM 6:52 PM
Waning Crescent, 4% visible
METAR KBFI 282253Z VRB04KT 10SM CLR 19/10 A3005 RMK AO2 SLP177 T01890100 $

10-Day Weather Forecast

Almanac

Astronomy

Sep. 28, 2016 Rise Set
Actual Time
Civil Twilight
Nautical Twilight
Astronomical Twilight
Moon
Length of Visible Light
Length of Day
Tomorrow will be .
, % of the Moon is Illuminated

Today's Extremes

State Highs State Lows

Community

WunderPhotos

Upload Photos

1,942,354 photos uploaded!

WunderBlog® & News

Nearby

Air Quality

  Air Quality AQ Index Pollutant
Not available.

Snow Depth

Station Depth Elevation

Earthquake Activity

City Distance Mag. Time & Date
Minimum magnitude displayed is 2.5.

Coastal Water Temperatures

Place Temperature

Stations

Nearby Weather Stations

Station Location Temp. Windchill Dew Point Humidity Wind Precip. Elev Updated Type
                   

Watches & Warnings

There are currently no watches in effect.